Terminal Aerodrome Forecast
Issued by NWS

Home | Current Version | Previous Version | Graphics & Text | Print | Product List | Glossary On
Versions: 1 2 3 4 5 6 7 8 9 10 11 12 13 14 15 16 17
000
FTUS43 KICT 150449 AAD
TAFRSL
TAF AMD
KRSL 150449Z 1505/1524 33008KT P6SM BKN005
      TEMPO 1506/1507 SCT009 BKN015
     FM150700 34012KT P6SM SCT120
     FM152000 36007KT P6SM SKC=

USA.gov is the U.S. government's official web portal to all federal, state and local government web resources and services.